Time;durP1;ratioP1;P1;durP2;ratioP2;P2;SDS_P1;SDS_P2;PMS_P1;PMS_P2;Temp;Humidity;BMP_temperature;BMP_pressure;BME280_temperature;BME280_humidity;BME280_pressure;Samples;Min_cycle;Max_cycle;Signal;HPM_P1;HPM_P2
2023/04/28 00:01:12;;;;;;;5.00;4.50;;;12.80;61.70;;;;;;5035729;28;20425;-70
2023/04/28 00:03:39;;;;;;;4.68;4.28;;;12.80;63.40;;;;;;5037544;28;20422;-70
2023/04/28 00:06:06;;;;;;;6.00;4.60;;;12.80;63.80;;;;;;5030460;28;20928;-70
2023/04/28 00:08:33;;;;;;;5.43;4.60;;;12.80;64.20;;;;;;5030538;28;20798;-70
2023/04/28 00:11:00;;;;;;;6.22;4.70;;;12.70;66.30;;;;;;5030919;28;20423;-70
2023/04/28 00:13:28;;;;;;;5.00;4.40;;;12.70;68.20;;;;;;5030158;28;20453;-71
2023/04/28 00:15:55;;;;;;;5.28;4.32;;;12.70;69.00;;;;;;5030285;28;20415;-70
2023/04/28 00:18:22;;;;;;;5.85;4.38;;;12.70;66.60;;;;;;5043361;28;20491;-71
2023/04/28 00:20:49;;;;;;;7.43;4.83;;;12.70;68.70;;;;;;5036622;28;20417;-70
2023/04/28 00:23:15;;;;;;;7.28;4.50;;;12.70;66.20;;;;;;5024102;28;20423;-70
2023/04/28 00:25:42;;;;;;;7.20;4.40;;;12.70;66.30;;;;;;5028069;28;20431;-70
2023/04/28 00:28:09;;;;;;;5.57;4.80;;;12.70;64.90;;;;;;5037917;28;20419;-70
2023/04/28 00:30:37;;;;;;;6.40;4.47;;;12.70;65.70;;;;;;5017259;28;20419;-70
2023/04/28 00:33:04;;;;;;;5.60;4.60;;;12.70;66.10;;;;;;5028207;28;20427;-70
2023/04/28 00:35:31;;;;;;;5.82;4.80;;;12.70;66.60;;;;;;5037498;28;20451;-69
2023/04/28 00:37:58;;;;;;;6.05;4.65;;;12.70;65.90;;;;;;5035504;28;20423;-70
2023/04/28 00:40:33;;;;;;;7.28;4.95;;;12.60;64.30;;;;;;5030197;28;20779;-69
2023/04/28 00:42:59;;;;;;;5.47;4.40;;;12.60;64.50;;;;;;5026365;28;20422;-70
2023/04/28 00:45:26;;;;;;;4.82;4.32;;;12.60;65.80;;;;;;5029355;28;20431;-69
2023/04/28 00:47:55;;;;;;;5.13;4.60;;;12.60;66.00;;;;;;5029346;28;20407;-70
2023/04/28 00:50:23;;;;;;;5.10;4.60;;;12.60;66.70;;;;;;5028484;28;20865;-70
2023/04/28 00:52:51;;;;;;;5.25;4.18;;;12.60;65.70;;;;;;5032060;28;20409;-70
2023/04/28 00:55:17;;;;;;;5.45;4.03;;;12.60;65.50;;;;;;5035130;28;20489;-69
2023/04/28 00:57:44;;;;;;;4.65;4.20;;;12.60;65.30;;;;;;5032972;28;20421;-71
2023/04/28 01:00:12;;;;;;;6.28;4.75;;;12.60;65.20;;;;;;5033433;28;20937;-71
2023/04/28 01:02:39;;;;;;;5.30;4.30;;;12.60;65.00;;;;;;5031239;28;20430;-69
2023/04/28 01:05:09;;;;;;;4.80;4.10;;;12.60;65.20;;;;;;5040755;28;20436;-70
2023/04/28 01:07:36;;;;;;;5.00;4.50;;;12.60;64.40;;;;;;5033423;28;20450;-70
2023/04/28 01:10:03;;;;;;;5.22;4.70;;;12.60;65.80;;;;;;5029135;28;20431;-69
2023/04/28 01:12:30;;;;;;;5.50;4.78;;;12.60;72.10;;;;;;5033537;28;20471;-70
2023/04/28 01:14:57;;;;;;;6.25;4.80;;;12.50;77.40;;;;;;5043907;28;20867;-70
2023/04/28 01:17:24;;;;;;;5.80;5.20;;;12.40;78.20;;;;;;5030524;28;20419;-70
2023/04/28 01:19:51;;;;;;;5.90;5.40;;;12.30;84.20;;;;;;5028788;28;20434;-69
2023/04/28 01:22:19;;;;;;;5.95;5.28;;;12.20;89.50;;;;;;5031531;28;20419;-69
2023/04/28 01:24:47;;;;;;;8.20;6.90;;;12.00;86.40;;;;;;5037661;28;20426;-70
2023/04/28 01:27:15;;;;;;;8.07;7.27;;;11.90;92.60;;;;;;5043199;28;20886;-70
2023/04/28 01:29:42;;;;;;;8.23;7.30;;;11.80;94.40;;;;;;5029468;28;20419;-70
2023/04/28 01:32:09;;;;;;;7.60;6.67;;;11.70;96.30;;;;;;5047529;28;20417;-69
2023/04/28 01:34:35;;;;;;;8.57;7.30;;;11.60;94.40;;;;;;5035940;28;20905;-70
2023/04/28 01:37:02;;;;;;;6.25;5.65;;;11.60;97.10;;;;;;5047935;28;20413;-69
2023/04/28 01:39:29;;;;;;;6.32;5.82;;;11.50;95.00;;;;;;5048502;28;20802;-70
2023/04/28 01:41:57;;;;;;;7.10;6.40;;;11.40;94.70;;;;;;5028527;28;20415;-69
2023/04/28 01:44:23;;;;;;;8.25;7.25;;;11.40;95.70;;;;;;5028163;28;20426;-70
2023/04/28 01:46:50;;;;;;;7.83;7.03;;;11.30;96.90;;;;;;5029077;28;20431;-69
2023/04/28 01:49:17;;;;;;;8.30;7.07;;;11.30;97.10;;;;;;5035674;28;20902;-69
2023/04/28 01:51:44;;;;;;;8.60;7.70;;;11.30;97.60;;;;;;5035674;28;20424;-70
2023/04/28 01:54:10;;;;;;;8.88;8.07;;;11.30;98.60;;;;;;5048223;28;20417;-69
2023/04/28 01:56:37;;;;;;;8.32;7.53;;;11.30;99.30;;;;;;5027788;28;20425;-70
2023/04/28 01:59:05;;;;;;;8.07;7.38;;;11.30;99.90;;;;;;5027079;28;20415;-69
2023/04/28 02:01:32;;;;;;;7.32;6.63;;;11.30;99.20;;;;;;5027774;28;20810;-69
2023/04/28 02:03:58;;;;;;;8.10;7.30;;;11.30;99.30;;;;;;5024092;28;20418;-69
2023/04/28 02:06:26;;;;;;;9.80;8.03;;;11.20;99.70;;;;;;5028749;28;20921;-70
2023/04/28 02:08:53;;;;;;;8.77;7.97;;;11.20;99.90;;;;;;5031655;28;20490;-70
2023/04/28 02:11:19;;;;;;;8.70;7.90;;;11.20;99.90;;;;;;5028478;28;20430;-69
2023/04/28 02:13:46;;;;;;;8.60;7.80;;;11.20;99.90;;;;;;5027905;28;20423;-69
2023/04/28 02:16:14;;;;;;;8.65;7.85;;;11.30;99.90;;;;;;5036200;28;20850;-70
2023/04/28 02:18:41;;;;;;;8.60;7.78;;;11.20;99.90;;;;;;5034831;28;20426;-69
2023/04/28 02:21:10;;;;;;;9.05;8.15;;;11.30;99.90;;;;;;5036952;28;20421;-70
2023/04/28 02:23:37;;;;;;;8.40;7.60;;;11.30;99.90;;;;;;5031901;28;20902;-69
2023/04/28 02:26:03;;;;;;;8.60;7.80;;;11.30;99.90;;;;;;5028384;28;20423;-69
2023/04/28 02:28:30;;;;;;;9.00;8.10;;;11.20;99.90;;;;;;5044001;28;20417;-69
2023/04/28 02:31:04;;;;;;;8.40;7.60;;;11.20;99.90;;;;;;5038954;28;20426;-69
2023/04/28 02:33:32;;;;;;;9.10;8.30;;;11.20;99.90;;;;;;5027459;28;20415;-69
2023/04/28 02:35:59;;;;;;;8.77;7.97;;;11.20;99.90;;;;;;5028259;28;20418;-70
2023/04/28 02:38:26;;;;;;;9.30;8.48;;;11.20;99.90;;;;;;5045098;28;20425;-69
2023/04/28 02:40:58;;;;;;;9.20;8.40;;;11.20;99.90;;;;;;5037298;28;20533;-70
2023/04/28 02:43:25;;;;;;;8.90;8.00;;;11.20;99.90;;;;;;5032443;28;20433;-70
2023/04/28 02:45:51;;;;;;;8.90;8.10;;;11.10;99.90;;;;;;5047988;28;20769;-69
2023/04/28 02:48:18;;;;;;;9.57;8.60;;;11.10;99.90;;;;;;5042254;28;20418;-69
2023/04/28 02:50:46;;;;;;;7.78;7.05;;;11.10;99.90;;;;;;5028256;28;20422;-70
2023/04/28 02:53:13;;;;;;;8.30;7.50;;;11.00;99.50;;;;;;5034260;28;20503;-69
2023/04/28 02:55:40;;;;;;;8.45;7.10;;;11.00;99.90;;;;;;5049725;28;20413;-69
2023/04/28 02:58:07;;;;;;;7.90;7.13;;;11.00;99.90;;;;;;5035019;28;20423;-69
2023/04/28 03:00:33;;;;;;;8.27;7.50;;;10.90;98.00;;;;;;5031890;28;20884;-69
2023/04/28 03:03:00;;;;;;;9.02;7.82;;;10.90;98.40;;;;;;5043916;28;20901;-69
2023/04/28 03:05:27;;;;;;;8.13;7.30;;;10.90;99.40;;;;;;5031473;28;20419;-69
2023/04/28 03:07:55;;;;;;;8.00;7.30;;;10.80;98.40;;;;;;5031816;28;20730;-69
2023/04/28 03:10:22;;;;;;;8.80;7.90;;;10.80;99.70;;;;;;5043439;28;20422;-69
2023/04/28 03:12:49;;;;;;;8.70;7.90;;;10.80;99.90;;;;;;5053960;28;20432;-69
2023/04/28 03:15:15;;;;;;;8.48;7.50;;;10.80;99.90;;;;;;5061342;28;20417;-69
2023/04/28 03:17:42;;;;;;;9.10;8.20;;;10.80;99.90;;;;;;5042527;28;20437;-69
2023/04/28 03:20:10;;;;;;;9.35;8.48;;;10.80;99.90;;;;;;5038546;28;20426;-69
2023/04/28 03:22:37;;;;;;;10.00;9.10;;;10.90;99.90;;;;;;5043450;28;20423;-69
2023/04/28 03:25:06;;;;;;;9.27;8.50;;;10.80;99.90;;;;;;5032595;28;20419;-69
2023/04/28 03:27:33;;;;;;;8.60;7.80;;;10.90;99.90;;;;;;5042921;28;20462;-69
2023/04/28 03:29:59;;;;;;;8.80;8.00;;;10.80;99.90;;;;;;5031034;28;20425;-69
2023/04/28 03:32:26;;;;;;;9.20;7.53;;;10.80;99.90;;;;;;5030966;28;20419;-69
2023/04/28 03:34:53;;;;;;;8.18;7.47;;;10.80;99.90;;;;;;5046196;28;20442;-69
2023/04/28 03:37:19;;;;;;;8.85;7.97;;;10.70;99.90;;;;;;5048062;28;20436;-69
2023/04/28 03:39:46;;;;;;;9.73;8.73;;;10.70;99.90;;;;;;5032891;28;20430;-69
2023/04/28 03:44:44;;;;;;;10.05;9.15;;;10.80;99.90;;;;;;5023858;28;20441;-72
2023/04/28 03:47:10;;;;;;;10.98;10.07;;;10.80;99.90;;;;;;5034786;28;20429;-72
2023/04/28 03:49:37;;;;;;;10.37;9.47;;;10.80;99.90;;;;;;5035810;28;20427;-72
2023/04/28 03:52:04;;;;;;;10.20;9.20;;;10.80;99.90;;;;;;5035662;28;20933;-72
2023/04/28 03:54:31;;;;;;;10.23;9.32;;;10.80;99.90;;;;;;5035767;28;20431;-71
2023/04/28 03:56:58;;;;;;;9.10;8.30;;;10.70;99.90;;;;;;5046712;28;20409;-71
2023/04/28 03:59:25;;;;;;;10.50;9.60;;;10.70;99.90;;;;;;5043678;28;20516;-71
2023/04/28 04:01:53;;;;;;;11.07;10.07;;;10.60;99.90;;;;;;5045848;28;20506;-71
2023/04/28 04:04:20;;;;;;;11.18;10.18;;;10.60;99.90;;;;;;5044731;28;20421;-71
2023/04/28 04:06:47;;;;;;;11.38;10.27;;;10.60;99.90;;;;;;5036046;28;20431;-71
2023/04/28 04:09:14;;;;;;;11.23;10.13;;;10.60;99.90;;;;;;5024941;28;20886;-72
2023/04/28 04:11:40;;;;;;;10.40;9.45;;;10.50;99.90;;;;;;5035742;28;20473;-71
2023/04/28 04:14:07;;;;;;;10.02;9.10;;;10.50;99.90;;;;;;5033690;28;20428;-71
2023/04/28 04:16:35;;;;;;;9.85;9.05;;;10.50;99.90;;;;;;5045238;28;20565;-72
2023/04/28 04:19:03;;;;;;;9.55;8.65;;;10.50;99.90;;;;;;5044644;28;20892;-70
2023/04/28 04:21:31;;;;;;;10.10;9.10;;;10.40;99.90;;;;;;5037741;28;20447;-72
2023/04/28 04:23:58;;;;;;;10.40;9.50;;;10.40;99.90;;;;;;5045246;28;20899;-72
2023/04/28 04:26:24;;;;;;;10.43;9.53;;;10.40;99.90;;;;;;5033503;28;20621;-72
2023/04/28 04:28:51;;;;;;;11.45;10.35;;;10.40;99.90;;;;;;5038174;28;20425;-72
2023/04/28 04:31:18;;;;;;;11.60;10.60;;;10.40;99.90;;;;;;5044340;28;20533;-71
2023/04/28 04:33:45;;;;;;;10.70;9.70;;;10.40;99.90;;;;;;5045828;28;20486;-73
2023/04/28 04:36:13;;;;;;;9.88;9.02;;;10.40;99.90;;;;;;5042773;28;20683;-73
2023/04/28 04:38:40;;;;;;;10.43;9.33;;;10.40;99.90;;;;;;5031818;28;20440;-73
2023/04/28 04:41:06;;;;;;;8.93;8.20;;;10.40;99.90;;;;;;5041286;28;20616;-73
2023/04/28 04:43:33;;;;;;;10.15;8.60;;;10.40;99.90;;;;;;5038102;28;20426;-71
2023/04/28 04:46:00;;;;;;;10.52;9.63;;;10.40;99.90;;;;;;5038597;28;20431;-72
2023/04/28 04:48:27;;;;;;;8.90;8.10;;;10.40;99.90;;;;;;5035300;28;20444;-72
2023/04/28 04:50:53;;;;;;;8.65;7.85;;;10.40;99.90;;;;;;5017927;28;20929;-71
2023/04/28 04:53:21;;;;;;;9.27;8.38;;;10.30;99.90;;;;;;5026958;28;20437;-69
2023/04/28 04:55:48;;;;;;;10.25;8.00;;;10.30;99.90;;;;;;5028764;28;20503;-72
2023/04/28 04:58:15;;;;;;;8.23;7.40;;;10.40;99.90;;;;;;5043596;28;20413;-73
2023/04/28 05:00:41;;;;;;;9.45;8.48;;;10.40;99.90;;;;;;5029589;28;20415;-73
2023/04/28 05:03:08;;;;;;;9.10;8.20;;;10.40;99.90;;;;;;5035719;28;20823;-72
2023/04/28 05:05:35;;;;;;;9.73;8.70;;;10.40;99.90;;;;;;5039334;28;20453;-72
2023/04/28 05:08:02;;;;;;;8.85;8.00;;;10.40;99.90;;;;;;5044448;28;20803;-71
2023/04/28 05:10:30;;;;;;;9.05;8.15;;;10.40;99.90;;;;;;5032252;28;20511;-72
2023/04/28 05:12:57;;;;;;;9.23;8.25;;;10.50;99.90;;;;;;5045188;28;20430;-74
2023/04/28 05:15:24;;;;;;;7.82;7.22;;;10.50;99.90;;;;;;5041222;28;20425;-76
2023/04/28 05:17:51;;;;;;;8.27;7.47;;;10.60;99.80;;;;;;5033262;28;20409;-74
2023/04/28 05:20:17;;;;;;;7.93;7.25;;;10.60;99.90;;;;;;5046001;28;20500;-75
2023/04/28 05:22:45;;;;;;;9.00;7.50;;;10.60;99.40;;;;;;5043743;28;20413;-73
2023/04/28 05:25:11;;;;;;;7.78;7.10;;;10.60;99.70;;;;;;5045114;28;20536;-74
2023/04/28 05:27:40;;;;;;;8.15;7.45;;;10.70;99.50;;;;;;5044124;28;20428;-71
2023/04/28 05:30:08;;;;;;;8.00;7.30;;;10.70;99.70;;;;;;5028042;28;20427;-73
2023/04/28 05:32:35;;;;;;;8.75;7.30;;;10.70;99.60;;;;;;5019717;28;20438;-72
2023/04/28 05:35:02;;;;;;;7.73;6.93;;;10.70;99.70;;;;;;5040528;28;20483;-73
2023/04/28 05:37:28;;;;;;;8.60;7.80;;;10.70;99.70;;;;;;5040876;28;20424;-73
2023/04/28 05:39:55;;;;;;;7.72;7.00;;;10.80;99.90;;;;;;5037353;28;20937;-71
2023/04/28 05:42:22;;;;;;;8.60;7.80;;;10.80;99.90;;;;;;5023068;28;20516;-72
2023/04/28 05:44:50;;;;;;;8.52;7.72;;;10.70;99.90;;;;;;5027726;28;20567;-72
2023/04/28 05:47:17;;;;;;;8.55;7.85;;;10.60;99.90;;;;;;5033799;28;20454;-73
2023/04/28 05:49:43;;;;;;;9.80;8.80;;;10.60;99.90;;;;;;5030366;28;20477;-72
2023/04/28 05:52:10;;;;;;;9.70;8.77;;;10.50;99.90;;;;;;5031959;28;20477;-71
2023/04/28 05:54:37;;;;;;;10.10;9.18;;;10.40;99.90;;;;;;5029526;28;20439;-72
2023/04/28 05:57:04;;;;;;;9.60;8.90;;;10.40;99.90;;;;;;5039253;28;20409;-72
2023/04/28 05:59:31;;;;;;;9.10;8.20;;;10.30;99.90;;;;;;5037580;28;20438;-71
2023/04/28 06:01:59;;;;;;;10.00;9.10;;;10.30;99.90;;;;;;5042504;28;20417;-72
2023/04/28 06:04:26;;;;;;;10.25;9.35;;;10.30;99.90;;;;;;5037348;28;20815;-71
2023/04/28 06:06:52;;;;;;;9.37;8.47;;;10.40;99.90;;;;;;5020845;28;20434;-71
2023/04/28 06:09:19;;;;;;;9.73;8.73;;;10.40;99.90;;;;;;5028864;28;20435;-71
2023/04/28 06:11:46;;;;;;;10.05;9.15;;;10.40;99.90;;;;;;5029188;28;20426;-72
2023/04/28 06:14:12;;;;;;;9.50;8.70;;;10.40;99.90;;;;;;5026144;28;20891;-72
2023/04/28 06:16:39;;;;;;;10.20;9.20;;;10.50;99.90;;;;;;5033192;28;20417;-72
2023/04/28 06:19:07;;;;;;;9.50;8.60;;;10.50;99.90;;;;;;5029619;28;20418;-71
2023/04/28 06:21:34;;;;;;;10.03;9.13;;;10.60;99.90;;;;;;5031146;28;20918;-71
2023/04/28 06:24:01;;;;;;;9.63;8.80;;;10.70;99.90;;;;;;5035033;28;20530;-72
2023/04/28 06:26:28;;;;;;;8.90;8.10;;;10.80;99.90;;;;;;5019939;28;20468;-71
2023/04/28 06:28:54;;;;;;;8.70;7.90;;;10.80;99.90;;;;;;5027950;28;20425;-72
2023/04/28 06:31:21;;;;;;;8.43;7.72;;;10.90;99.90;;;;;;5019411;28;20439;-71
2023/04/28 06:33:48;;;;;;;9.48;8.63;;;10.90;99.90;;;;;;5025773;28;20450;-72
2023/04/28 06:36:16;;;;;;;9.50;8.60;;;10.80;99.90;;;;;;5028525;28;20423;-71
2023/04/28 06:38:43;;;;;;;8.80;7.97;;;10.80;99.90;;;;;;5038603;28;20853;-72
2023/04/28 06:41:10;;;;;;;9.77;8.60;;;10.80;99.90;;;;;;5028743;28;20430;-72
2023/04/28 06:43:37;;;;;;;8.98;8.18;;;10.90;99.90;;;;;;5024290;28;20431;-72
2023/04/28 06:46:04;;;;;;;8.38;7.63;;;11.00;99.90;;;;;;5027886;28;20415;-71
2023/04/28 06:48:31;;;;;;;9.10;8.25;;;11.00;99.90;;;;;;5025476;28;20624;-71
2023/04/28 06:50:57;;;;;;;8.73;7.93;;;11.10;99.90;;;;;;5027140;28;20419;-72
2023/04/28 06:53:25;;;;;;;8.90;8.10;;;11.10;99.90;;;;;;5038240;28;20430;-72
2023/04/28 06:55:52;;;;;;;8.75;8.07;;;11.20;99.90;;;;;;5014198;28;20444;-71
2023/04/28 06:58:20;;;;;;;8.27;7.57;;;11.30;99.90;;;;;;5014872;28;20434;-72
2023/04/28 07:00:46;;;;;;;8.50;7.70;;;11.30;99.90;;;;;;5010917;28;20442;-73
2023/04/28 07:03:13;;;;;;;8.57;7.78;;;11.40;99.90;;;;;;5029017;28;20457;-73
2023/04/28 07:05:40;;;;;;;8.15;7.45;;;11.50;99.90;;;;;;5041050;28;20440;-72
2023/04/28 07:08:07;;;;;;;8.30;7.50;;;11.60;99.90;;;;;;5046898;28;20680;-73
2023/04/28 07:10:35;;;;;;;7.75;7.05;;;11.70;99.90;;;;;;5044416;28;20421;-72
2023/04/28 07:13:02;;;;;;;7.68;7.00;;;11.80;99.50;;;;;;5027170;28;20452;-73
2023/04/28 07:15:28;;;;;;;8.80;7.55;;;11.70;99.10;;;;;;5026902;28;20434;-73
2023/04/28 07:17:55;;;;;;;7.63;7.03;;;11.70;99.50;;;;;;5035450;28;20434;-73
2023/04/28 07:20:22;;;;;;;8.30;7.60;;;11.70;99.70;;;;;;5039062;28;20908;-73
2023/04/28 07:22:49;;;;;;;8.38;7.57;;;11.70;99.80;;;;;;5045356;28;21149;-72
2023/04/28 07:25:15;;;;;;;8.68;7.97;;;11.70;99.90;;;;;;5042088;28;21157;-72
2023/04/28 07:27:43;;;;;;;7.80;7.10;;;11.70;99.90;;;;;;5035904;28;20431;-72
2023/04/28 07:30:12;;;;;;;8.07;7.38;;;11.80;99.90;;;;;;5025333;28;22072;-73
2023/04/28 07:32:38;;;;;;;8.00;7.40;;;11.80;99.60;;;;;;5027695;28;20465;-72
2023/04/28 07:35:06;;;;;;;8.50;7.70;;;11.80;99.60;;;;;;5028458;28;20539;-73
2023/04/28 07:37:33;;;;;;;7.25;6.60;;;11.90;99.80;;;;;;5030868;28;20834;-72
2023/04/28 07:39:59;;;;;;;8.63;7.93;;;11.90;99.40;;;;;;5025754;28;20436;-72
2023/04/28 07:42:26;;;;;;;7.83;7.13;;;12.10;99.50;;;;;;5021582;28;20435;-73
2023/04/28 07:44:56;;;;;;;7.85;7.13;;;12.20;98.90;;;;;;5031983;28;20530;-73
2023/04/28 07:47:23;;;;;;;7.82;7.03;;;12.20;98.70;;;;;;5026278;28;20431;-72
2023/04/28 07:49:49;;;;;;;8.20;7.50;;;12.40;98.40;;;;;;5039868;28;20469;-72
2023/04/28 07:52:16;;;;;;;8.10;7.30;;;12.50;98.10;;;;;;5025623;28;20433;-72
2023/04/28 07:54:43;;;;;;;7.45;6.85;;;12.60;97.90;;;;;;5026379;28;20455;-73
2023/04/28 07:57:10;;;;;;;8.00;7.30;;;12.70;97.40;;;;;;5023629;28;20510;-73
2023/04/28 07:59:37;;;;;;;8.00;7.30;;;12.90;97.10;;;;;;5021176;28;20479;-73
2023/04/28 08:02:05;;;;;;;7.63;6.82;;;13.00;96.80;;;;;;5019004;28;20897;-71
2023/04/28 08:04:33;;;;;;;7.80;7.10;;;13.20;96.30;;;;;;5030634;28;20444;-71
2023/04/28 08:07:00;;;;;;;8.23;7.40;;;13.30;95.80;;;;;;5029482;28;20469;-72
2023/04/28 08:09:27;;;;;;;7.60;7.00;;;13.30;95.30;;;;;;5032835;28;20458;-72
2023/04/28 08:11:53;;;;;;;7.80;7.10;;;13.50;95.70;;;;;;5032732;28;20870;-71
2023/04/28 08:14:20;;;;;;;8.10;7.30;;;13.60;95.30;;;;;;5031302;28;20443;-72
2023/04/28 08:16:47;;;;;;;8.07;7.38;;;13.70;95.00;;;;;;5025852;28;20438;-71
2023/04/28 08:19:15;;;;;;;7.80;7.10;;;14.00;94.50;;;;;;5039835;28;20433;-71
2023/04/28 08:21:42;;;;;;;7.90;7.20;;;14.30;94.00;;;;;;5032086;28;20432;-71
2023/04/28 08:24:09;;;;;;;7.55;6.70;;;14.60;93.40;;;;;;5039729;28;20919;-71
2023/04/28 08:26:36;;;;;;;7.72;7.13;;;14.80;92.90;;;;;;5040070;28;20426;-72
2023/04/28 08:29:03;;;;;;;8.10;7.30;;;14.90;91.90;;;;;;5032231;28;20425;-73
2023/04/28 08:31:30;;;;;;;7.95;7.28;;;14.70;92.30;;;;;;5031726;28;20452;-72
2023/04/28 08:33:57;;;;;;;8.10;7.30;;;14.60;92.30;;;;;;5030396;28;20442;-72
2023/04/28 08:36:30;;;;;;;7.85;7.10;;;14.60;92.60;;;;;;5027177;28;20893;-73
2023/04/28 08:38:58;;;;;;;7.70;7.10;;;14.60;92.60;;;;;;5030116;28;20496;-72
2023/04/28 08:41:26;;;;;;;7.95;7.18;;;14.70;92.80;;;;;;5037833;28;20633;-72
2023/04/28 08:43:53;;;;;;;8.47;7.57;;;14.80;92.60;;;;;;5022086;28;20536;-72
2023/04/28 08:46:21;;;;;;;8.10;7.40;;;14.90;92.20;;;;;;5020124;28;20428;-72
2023/04/28 08:48:49;;;;;;;7.50;6.80;;;14.90;92.30;;;;;;5016846;28;21651;-73
2023/04/28 08:51:25;;;;;;;7.68;6.97;;;14.80;92.40;;;;;;5021001;28;20446;-72
2023/04/28 08:53:55;;;;;;;8.00;7.20;;;14.80;92.70;;;;;;5021120;28;20442;-72
2023/04/28 08:56:26;;;;;;;8.02;7.32;;;14.70;93.00;;;;;;5025814;28;20437;-72
2023/04/28 08:58:54;;;;;;;8.00;7.30;;;14.70;93.60;;;;;;5032816;28;20418;-72
2023/04/28 09:01:22;;;;;;;8.40;7.70;;;14.70;93.50;;;;;;5013627;28;20807;-72
2023/04/28 09:03:49;;;;;;;8.80;8.00;;;14.80;94.20;;;;;;5024572;28;20453;-72
2023/04/28 09:06:16;;;;;;;8.57;7.88;;;14.80;95.10;;;;;;5037196;28;20696;-72
2023/04/28 09:08:42;;;;;;;8.52;7.82;;;14.80;95.90;;;;;;5027096;28;20882;-74
2023/04/28 09:11:12;;;;;;;9.13;8.40;;;14.70;96.40;;;;;;5035573;28;20447;-71
2023/04/28 09:13:39;;;;;;;9.00;8.30;;;14.50;97.10;;;;;;5034950;28;21017;-71
2023/04/28 09:16:07;;;;;;;9.27;8.57;;;14.40;97.80;;;;;;5034225;28;20941;-71
2023/04/28 09:18:34;;;;;;;10.00;9.00;;;14.20;98.00;;;;;;5037838;28;20438;-73
2023/04/28 09:21:05;;;;;;;9.57;8.77;;;14.20;98.40;;;;;;5041673;28;20843;-73
2023/04/28 09:23:33;;;;;;;10.00;9.00;;;14.10;99.60;;;;;;5033417;28;20518;-72
2023/04/28 09:26:01;;;;;;;10.00;9.20;;;14.10;99.80;;;;;;5036469;28;20435;-71
2023/04/28 09:28:30;;;;;;;10.18;9.07;;;14.00;99.90;;;;;;5038751;28;20433;-71
2023/04/28 09:30:57;;;;;;;9.90;9.10;;;14.00;99.90;;;;;;5028771;28;20435;-71
2023/04/28 09:33:23;;;;;;;10.60;9.50;;;13.90;99.90;;;;;;5024629;28;20430;-71
2023/04/28 09:35:51;;;;;;;10.90;10.00;;;13.90;99.90;;;;;;5033803;28;20417;-71
2023/04/28 09:38:19;;;;;;;11.88;10.88;;;13.90;99.90;;;;;;5028215;28;20446;-73
2023/04/28 09:40:51;;;;;;;11.52;10.52;;;13.80;99.90;;;;;;5033238;28;20469;-73
2023/04/28 09:43:30;;;;;;;11.45;10.35;;;13.80;99.90;;;;;;5028619;28;20854;-71
2023/04/28 09:45:58;;;;;;;13.63;12.52;;;13.90;99.90;;;;;;5028521;28;20818;-72
2023/04/28 09:48:30;;;;;;;13.25;11.95;;;14.00;99.90;;;;;;5030416;28;20427;-71
2023/04/28 09:50:58;;;;;;;13.23;12.02;;;14.10;99.90;;;;;;5031921;28;20431;-71
2023/04/28 09:53:25;;;;;;;11.00;10.00;;;14.10;99.90;;;;;;5042421;28;20729;-71
2023/04/28 09:55:53;;;;;;;10.45;9.65;;;14.20;99.90;;;;;;5022966;28;20474;-72
2023/04/28 09:58:21;;;;;;;11.90;11.00;;;14.20;99.90;;;;;;5031717;28;21120;-71
2023/04/28 10:00:52;;;;;;;11.27;10.38;;;14.20;99.90;;;;;;5028172;28;20528;-71
2023/04/28 10:03:21;;;;;;;13.00;11.82;;;14.10;99.90;;;;;;5033265;28;20514;-72
2023/04/28 10:05:49;;;;;;;12.07;11.17;;;14.10;99.90;;;;;;5042610;28;20872;-71
2023/04/28 10:08:18;;;;;;;13.95;12.75;;;14.00;99.90;;;;;;5039496;28;20522;-71
2023/04/28 10:10:47;;;;;;;13.10;12.00;;;13.90;99.90;;;;;;5028818;28;20891;-72
2023/04/28 10:13:14;;;;;;;14.10;13.00;;;13.90;99.90;;;;;;5032622;28;20502;-72
2023/04/28 10:15:42;;;;;;;14.07;12.88;;;13.80;99.90;;;;;;5044290;28;20416;-72
2023/04/28 10:18:12;;;;;;;15.00;13.70;;;13.70;99.90;;;;;;5042345;28;20441;-72
2023/04/28 10:20:40;;;;;;;14.18;12.98;;;13.70;99.90;;;;;;5042972;28;20926;-71
2023/04/28 10:23:25;;;;;;;14.57;13.27;;;13.70;99.90;;;;;;5043514;28;20431;-72
2023/04/28 10:25:56;;;;;;;14.70;13.40;;;13.60;99.90;;;;;;5041062;28;20505;-71
2023/04/28 10:28:25;;;;;;;14.63;13.43;;;13.70;99.90;;;;;;5031133;28;20464;-72
2023/04/28 10:31:10;;;;;;;14.85;13.45;;;13.80;99.90;;;;;;5018080;28;20907;-72
2023/04/28 10:33:41;;;;;;;12.90;11.80;;;13.90;99.90;;;;;;5028750;28;21904;-71
2023/04/28 10:36:08;;;;;;;14.05;12.85;;;14.00;99.90;;;;;;5033710;28;20425;-73
2023/04/28 10:38:36;;;;;;;12.63;11.63;;;14.20;99.90;;;;;;5038434;28;20809;-74
2023/04/28 10:41:03;;;;;;;11.80;10.90;;;14.40;99.90;;;;;;5034936;28;20441;-74
2023/04/28 10:43:38;;;;;;;12.88;11.88;;;14.50;99.90;;;;;;5023023;28;20528;-74
2023/04/28 10:46:09;;;;;;;11.77;10.68;;;14.70;99.90;;;;;;5038700;28;20514;-74
2023/04/28 10:48:56;;;;;;;10.30;9.60;;;14.90;99.90;;;;;;5026822;28;20440;-75
2023/04/28 10:51:30;;;;;;;11.93;10.73;;;15.00;99.90;;;;;;5019918;28;20809;-74
2023/04/28 10:54:18;;;;;;;11.48;10.50;;;15.10;99.90;;;;;;5014312;28;20436;-74
2023/04/28 10:57:30;;;;;;;11.40;10.40;;;15.10;99.90;;;;;;5017924;28;20428;-74
2023/04/28 11:00:30;;;;;;;12.07;11.07;;;15.10;99.90;;;;;;5023148;28;20429;-75
2023/04/28 11:02:57;;;;;;;11.02;10.13;;;15.10;99.90;;;;;;5025531;28;20628;-72
2023/04/28 11:05:27;;;;;;;11.30;10.50;;;15.20;99.90;;;;;;5029851;28;20873;-72
2023/04/28 11:08:27;;;;;;;10.95;10.05;;;15.30;99.90;;;;;;5031960;28;20427;-73
2023/04/28 11:11:17;;;;;;;11.27;10.27;;;15.40;99.90;;;;;;5022139;28;20435;-73
2023/04/28 11:13:46;;;;;;;10.80;9.90;;;15.60;99.90;;;;;;5033389;28;20437;-73
2023/04/28 11:16:16;;;;;;;10.30;9.30;;;15.80;99.90;;;;;;5022152;28;20534;-73
2023/04/28 11:19:02;;;;;;;10.80;10.00;;;15.90;99.90;;;;;;5027447;28;20892;-71
2023/04/28 11:21:31;;;;;;;9.93;9.13;;;15.90;99.90;;;;;;5035438;28;20502;-72
2023/04/28 11:23:58;;;;;;;9.40;8.70;;;16.10;99.90;;;;;;5046156;28;20872;-71
2023/04/28 11:26:27;;;;;;;9.00;8.18;;;16.50;99.90;;;;;;5046163;28;20421;-71
2023/04/28 11:28:55;;;;;;;8.65;8.05;;;16.80;99.90;;;;;;5029354;28;20888;-74
2023/04/28 11:31:23;;;;;;;8.35;7.68;;;17.10;99.90;;;;;;5021572;28;20434;-73
2023/04/28 11:33:54;;;;;;;8.00;7.40;;;17.40;99.50;;;;;;5027680;28;20442;-73
2023/04/28 11:36:25;;;;;;;8.10;7.50;;;17.70;99.20;;;;;;5022257;28;20448;-73
2023/04/28 11:38:53;;;;;;;7.82;7.13;;;17.90;98.10;;;;;;5032896;28;20426;-71
2023/04/28 11:41:20;;;;;;;8.20;7.50;;;18.00;97.60;;;;;;5028778;28;20461;-71
2023/04/28 11:43:47;;;;;;;7.75;7.05;;;18.10;97.10;;;;;;5023695;28;20434;-71
2023/04/28 11:46:17;;;;;;;7.70;7.20;;;18.10;96.50;;;;;;5030023;28;20944;-70
2023/04/28 11:48:44;;;;;;;8.90;8.20;;;18.20;96.50;;;;;;5027661;28;20458;-71
2023/04/28 11:51:26;;;;;;;8.70;8.00;;;18.20;96.30;;;;;;5043482;28;20528;-71
2023/04/28 11:53:54;;;;;;;8.60;7.90;;;18.10;96.30;;;;;;5032720;28;20541;-71
2023/04/28 11:56:21;;;;;;;8.40;7.80;;;18.00;96.30;;;;;;5030255;28;20437;-71
2023/04/28 11:59:00;;;;;;;9.00;8.40;;;17.90;96.50;;;;;;5026150;28;20538;-72
2023/04/28 12:01:26;;;;;;;8.75;8.23;;;17.90;96.80;;;;;;5017827;28;20457;-70
2023/04/28 12:03:54;;;;;;;9.27;8.57;;;17.80;96.70;;;;;;5018824;28;20514;-71
2023/04/28 12:06:21;;;;;;;8.80;8.20;;;17.90;97.10;;;;;;5030288;28;20781;-72
2023/04/28 12:08:47;;;;;;;8.43;7.83;;;18.10;97.00;;;;;;5025500;28;20423;-71
2023/04/28 12:11:16;;;;;;;8.13;7.43;;;18.50;96.60;;;;;;5033821;28;20906;-71
2023/04/28 12:13:44;;;;;;;7.80;7.30;;;19.00;96.60;;;;;;5028494;28;20437;-72
2023/04/28 12:16:12;;;;;;;7.80;7.18;;;19.70;93.10;;;;;;5023617;28;20886;-71
2023/04/28 12:18:58;;;;;;;7.27;6.77;;;20.10;92.40;;;;;;5027960;28;20508;-71
2023/04/28 12:21:25;;;;;;;7.43;6.93;;;20.30;91.00;;;;;;5017658;28;20519;-71
2023/04/28 12:23:52;;;;;;;7.10;6.70;;;20.20;90.60;;;;;;5028678;28;20448;-73
2023/04/28 12:26:26;;;;;;;7.10;6.53;;;20.30;90.50;;;;;;5029446;28;20443;-68
2023/04/28 12:28:52;;;;;;;7.40;6.80;;;20.30;90.40;;;;;;5025019;28;20536;-70
2023/04/28 12:31:19;;;;;;;7.20;6.70;;;20.40;90.00;;;;;;5038548;28;20872;-70
2023/04/28 12:33:46;;;;;;;6.50;6.00;;;20.60;90.20;;;;;;5038413;28;20497;-69
2023/04/28 12:36:15;;;;;;;7.03;6.53;;;21.10;87.90;;;;;;5026746;28;20447;-69
2023/04/28 12:38:48;;;;;;;6.00;5.60;;;21.50;85.10;;;;;;5034779;28;20452;-70
2023/04/28 12:41:14;;;;;;;5.60;5.20;;;21.60;83.40;;;;;;5031761;28;20459;-68
2023/04/28 12:43:43;;;;;;;5.63;5.32;;;21.60;82.60;;;;;;5021994;28;20430;-70
2023/04/28 12:46:13;;;;;;;4.82;4.43;;;21.60;80.70;;;;;;5027685;28;20458;-71
2023/04/28 12:48:40;;;;;;;5.70;5.20;;;21.50;82.80;;;;;;5015001;28;20446;-71
2023/04/28 12:51:07;;;;;;;5.28;4.90;;;21.40;82.80;;;;;;5021648;28;20435;-69